Time;durP1;ratioP1;P1;durP2;ratioP2;P2;SDS_P1;SDS_P2;PMS_P1;PMS_P2;Temp;Humidity;BMP_temperature;BMP_pressure;BME280_temperature;BME280_humidity;BME280_pressure;Samples;Min_cycle;Max_cycle;Signal;HPM_P1;HPM_P2
2023/08/23 00:00:16;;;;;;;3.00;1.97;;;22.60;99.90;;;;;;5116611;28;20495;-92
2023/08/23 00:02:42;;;;;;;2.03;1.93;;;22.60;99.90;;;;;;5115469;28;20493;-93
2023/08/23 00:05:10;;;;;;;1.60;1.20;;;22.60;99.90;;;;;;5115022;28;20979;-93
2023/08/23 00:07:38;;;;;;;1.77;1.67;;;22.50;99.90;;;;;;5114786;28;20493;-93
2023/08/23 00:10:05;;;;;;;2.13;1.50;;;22.50;99.90;;;;;;5115087;28;20438;-93
2023/08/23 00:12:32;;;;;;;2.80;1.63;;;22.50;99.90;;;;;;5115196;28;20207;-93
2023/08/23 00:14:59;;;;;;;2.80;1.53;;;22.50;99.90;;;;;;5115141;28;20243;-93
2023/08/23 00:17:26;;;;;;;2.93;1.97;;;22.50;99.90;;;;;;5115257;28;20899;-93
2023/08/23 00:19:54;;;;;;;2.20;1.60;;;22.40;99.90;;;;;;5114972;28;20227;-91
2023/08/23 00:22:21;;;;;;;1.77;1.67;;;22.40;99.90;;;;;;5114886;28;20204;-93
2023/08/23 00:24:49;;;;;;;3.90;2.80;;;22.40;99.90;;;;;;5114898;28;20466;-93
2023/08/23 00:27:16;;;;;;;1.50;1.40;;;22.40;99.90;;;;;;5114628;28;20476;-93
2023/08/23 00:29:42;;;;;;;1.90;1.80;;;22.60;99.90;;;;;;5114785;28;20212;-92
2023/08/23 00:32:09;;;;;;;8.97;1.57;;;22.30;99.90;;;;;;5114934;28;20443;-93
2023/08/23 00:34:36;;;;;;;2.40;2.20;;;22.30;99.90;;;;;;5115090;28;20220;-93
2023/08/23 00:37:03;;;;;;;2.10;2.00;;;22.20;99.90;;;;;;5114785;28;20196;-93
2023/08/23 00:39:29;;;;;;;2.30;2.10;;;22.30;99.90;;;;;;5114531;28;20454;-93
2023/08/23 00:41:57;;;;;;;2.50;2.30;;;22.20;99.90;;;;;;5114823;28;20468;-93
2023/08/23 00:44:24;;;;;;;1.90;1.80;;;22.20;99.90;;;;;;5116877;28;20453;-93
2023/08/23 00:46:51;;;;;;;1.90;1.77;;;22.20;99.90;;;;;;5118694;28;20489;-92
2023/08/23 00:49:18;;;;;;;1.60;1.50;;;22.20;99.90;;;;;;5118759;28;20459;-93
2023/08/23 00:51:45;;;;;;;2.90;1.90;;;22.20;99.90;;;;;;5118684;28;20442;-93
2023/08/23 00:54:12;;;;;;;1.97;1.57;;;22.10;99.90;;;;;;5118237;28;20949;-93
2023/08/23 00:56:39;;;;;;;1.90;1.80;;;22.20;99.90;;;;;;5118711;28;20453;-93
2023/08/23 00:59:09;;;;;;;1.83;1.50;;;22.10;99.90;;;;;;5118634;28;20430;-93
2023/08/23 01:01:36;;;;;;;1.83;1.60;;;22.10;99.90;;;;;;5118838;28;20449;-93
2023/08/23 01:04:02;;;;;;;1.50;1.40;;;22.10;99.90;;;;;;5118341;28;20470;-94
2023/08/23 01:06:38;;;;;;;1.80;1.70;;;22.00;99.90;;;;;;5118276;28;20478;-94
2023/08/23 01:09:19;;;;;;;1.93;1.83;;;22.00;99.90;;;;;;5118449;28;20437;-93
2023/08/23 01:11:56;;;;;;;7.30;2.53;;;22.00;99.90;;;;;;5118456;28;20426;-93
2023/08/23 01:14:31;;;;;;;2.33;2.17;;;22.00;99.90;;;;;;5118159;28;20422;-94
2023/08/23 01:16:59;;;;;;;4.63;2.30;;;21.90;99.90;;;;;;5118260;28;20441;-93
2023/08/23 01:19:38;;;;;;;1.97;1.63;;;22.00;99.90;;;;;;5118791;28;20449;-90
2023/08/23 01:22:06;;;;;;;2.30;1.90;;;22.00;99.90;;;;;;5118483;28;20948;-93
2023/08/23 01:24:35;;;;;;;2.53;2.40;;;22.00;99.90;;;;;;5118785;28;20466;-93
2023/08/23 01:27:02;;;;;;;2.20;2.00;;;21.90;99.90;;;;;;5117936;28;20470;-93
2023/08/23 01:29:28;;;;;;;1.90;1.67;;;21.90;99.90;;;;;;5118049;27;20529;-93
2023/08/23 01:32:01;;;;;;;2.30;1.93;;;21.90;99.90;;;;;;5117957;28;20468;-93
2023/08/23 01:34:30;;;;;;;3.07;2.10;;;21.90;99.90;;;;;;5118233;28;20411;-93
2023/08/23 01:36:59;;;;;;;4.30;1.97;;;21.90;99.90;;;;;;5118325;27;20434;-93
2023/08/23 01:39:27;;;;;;;2.13;1.93;;;21.80;99.90;;;;;;5118255;28;20447;-93
2023/08/23 01:41:55;;;;;;;2.10;2.00;;;21.80;99.90;;;;;;5117965;28;20445;-93
2023/08/23 01:44:22;;;;;;;1.97;1.87;;;21.80;99.90;;;;;;5117637;28;20442;-93
2023/08/23 01:46:49;;;;;;;2.90;1.70;;;21.80;99.90;;;;;;5117571;27;20482;-93
2023/08/23 01:49:16;;;;;;;3.93;2.93;;;21.70;99.90;;;;;;5117210;28;20943;-93
2023/08/23 01:51:42;;;;;;;2.10;2.00;;;21.70;99.90;;;;;;5117157;28;20951;-94
2023/08/23 01:54:09;;;;;;;1.67;1.57;;;21.70;99.90;;;;;;5118091;28;20445;-93
2023/08/23 01:56:36;;;;;;;6.30;2.63;;;21.80;99.90;;;;;;5116600;28;20455;-93
2023/08/23 01:59:04;;;;;;;3.90;1.97;;;21.70;99.90;;;;;;5120699;28;20449;-93
2023/08/23 02:01:31;;;;;;;2.33;2.00;;;21.60;99.90;;;;;;5119113;27;20456;-93
2023/08/23 02:03:58;;;;;;;3.10;2.20;;;21.60;99.90;;;;;;5117498;27;20485;-92
2023/08/23 02:06:25;;;;;;;2.97;2.67;;;21.60;99.90;;;;;;5117161;28;20547;-93
2023/08/23 02:08:51;;;;;;;2.27;2.07;;;21.50;99.90;;;;;;5117345;28;20449;-93
2023/08/23 02:11:18;;;;;;;2.40;2.20;;;21.50;99.90;;;;;;5118086;28;20457;-93
2023/08/23 02:13:45;;;;;;;2.13;1.60;;;21.50;99.90;;;;;;5117628;28;20434;-93
2023/08/23 02:16:13;;;;;;;2.73;1.63;;;21.50;99.90;;;;;;5117014;28;20459;-93
2023/08/23 02:18:39;;;;;;;3.07;2.20;;;21.40;99.90;;;;;;5117167;28;20438;-93
2023/08/23 02:21:06;;;;;;;2.50;2.30;;;21.40;99.90;;;;;;5122225;28;20442;-93
2023/08/23 02:23:33;;;;;;;2.27;2.00;;;21.40;99.90;;;;;;5119768;28;20445;-93
2023/08/23 02:26:01;;;;;;;1.90;1.80;;;21.40;99.90;;;;;;5117255;28;20980;-93
2023/08/23 02:28:27;;;;;;;2.37;2.17;;;21.30;99.90;;;;;;5116930;27;20947;-93
2023/08/23 02:31:01;;;;;;;2.60;1.73;;;21.30;99.90;;;;;;5117128;28;20442;-92
2023/08/23 02:33:30;;;;;;;1.93;1.73;;;21.30;99.90;;;;;;5117497;28;20427;-93
2023/08/23 02:35:56;;;;;;;2.23;2.03;;;21.30;99.90;;;;;;5117082;28;20466;-93
2023/08/23 02:38:23;;;;;;;3.00;2.07;;;21.30;99.90;;;;;;5117002;28;20438;-93
2023/08/23 02:40:49;;;;;;;3.40;2.30;;;21.20;99.90;;;;;;5117340;28;20446;-92
2023/08/23 02:43:16;;;;;;;2.87;2.67;;;21.30;99.90;;;;;;5116727;28;20441;-93
2023/08/23 02:45:43;;;;;;;3.10;2.20;;;21.20;99.90;;;;;;5116510;28;20589;-93
2023/08/23 02:48:11;;;;;;;2.90;1.83;;;21.10;99.90;;;;;;5116618;28;20484;-93
2023/08/23 02:50:39;;;;;;;1.93;1.83;;;21.10;99.90;;;;;;5116771;28;20449;-93
2023/08/23 02:53:06;;;;;;;3.33;2.30;;;21.00;99.90;;;;;;5116499;28;20450;-93
2023/08/23 02:55:36;;;;;;;2.70;2.50;;;21.00;99.90;;;;;;5116320;28;20983;-93
2023/08/23 02:58:02;;;;;;;4.23;2.60;;;21.00;99.90;;;;;;5117310;28;20419;-93
2023/08/23 03:00:29;;;;;;;2.60;2.40;;;20.90;99.90;;;;;;5116404;28;20438;-93
2023/08/23 03:02:56;;;;;;;2.90;2.70;;;20.90;99.90;;;;;;5116138;28;20478;-93
2023/08/23 03:05:23;;;;;;;2.20;2.10;;;20.90;99.90;;;;;;5116115;27;20466;-93
2023/08/23 03:07:51;;;;;;;2.70;2.40;;;20.90;99.90;;;;;;5115444;28;20474;-93
2023/08/23 03:10:18;;;;;;;3.03;2.10;;;21.00;99.90;;;;;;5116295;28;20446;-93
2023/08/23 03:12:45;;;;;;;3.53;2.67;;;21.00;99.90;;;;;;5116223;28;20442;-93
2023/08/23 03:15:12;;;;;;;4.20;2.37;;;21.00;99.90;;;;;;5115957;28;20447;-93
2023/08/23 03:17:39;;;;;;;3.27;1.93;;;20.90;99.90;;;;;;5115849;28;20442;-93
2023/08/23 03:20:06;;;;;;;2.67;2.47;;;20.90;99.90;;;;;;5115639;27;20996;-93
2023/08/23 03:22:33;;;;;;;2.40;2.20;;;20.90;99.90;;;;;;5115988;28;20446;-93
2023/08/23 03:25:01;;;;;;;5.30;2.37;;;20.80;99.90;;;;;;5116095;28;21001;-93
2023/08/23 03:27:28;;;;;;;2.60;2.40;;;20.80;99.90;;;;;;5116036;28;21013;-92
2023/08/23 03:29:55;;;;;;;4.70;3.10;;;21.00;99.90;;;;;;5115893;28;20449;-93
2023/08/23 03:32:21;;;;;;;2.53;2.33;;;20.70;99.90;;;;;;5115890;28;20439;-93
2023/08/23 03:34:48;;;;;;;2.70;2.50;;;20.80;99.90;;;;;;5115406;28;21026;-93
2023/08/23 03:37:15;;;;;;;2.60;2.40;;;20.70;99.90;;;;;;5118631;27;20434;-93
2023/08/23 03:39:42;;;;;;;4.40;2.90;;;20.70;99.90;;;;;;5115583;28;20444;-93
2023/08/23 03:42:10;;;;;;;2.80;2.30;;;20.70;99.90;;;;;;5115600;28;20458;-93
2023/08/23 03:44:37;;;;;;;2.50;2.30;;;20.70;99.90;;;;;;5115996;28;20522;-93
2023/08/23 03:47:04;;;;;;;3.57;2.67;;;20.70;99.90;;;;;;5115171;28;20482;-93
2023/08/23 03:49:30;;;;;;;5.43;2.90;;;20.60;99.90;;;;;;5115249;28;20927;-93
2023/08/23 03:51:57;;;;;;;3.13;2.90;;;20.60;99.90;;;;;;5115719;28;20450;-93
2023/08/23 03:54:24;;;;;;;2.63;2.43;;;20.60;99.90;;;;;;5115407;28;20434;-93
2023/08/23 03:56:51;;;;;;;3.03;2.57;;;20.70;99.90;;;;;;5116113;28;20445;-92
2023/08/23 03:59:19;;;;;;;2.43;2.17;;;20.60;99.90;;;;;;5116969;28;20439;-93
2023/08/23 04:01:46;;;;;;;2.90;2.70;;;20.40;99.90;;;;;;5115659;28;20445;-93
2023/08/23 04:04:13;;;;;;;3.17;2.90;;;20.50;99.90;;;;;;5114879;28;20508;-93
2023/08/23 04:06:40;;;;;;;2.53;2.33;;;20.50;99.90;;;;;;5115136;28;20847;-93
2023/08/23 04:09:07;;;;;;;4.33;2.80;;;20.50;99.90;;;;;;5115014;28;20447;-93
2023/08/23 04:11:33;;;;;;;2.37;2.17;;;20.50;99.90;;;;;;5115068;28;20445;-93
2023/08/23 04:14:00;;;;;;;3.90;2.87;;;20.40;99.90;;;;;;5115282;28;20447;-93
2023/08/23 04:16:28;;;;;;;3.97;2.83;;;20.40;99.90;;;;;;5114975;28;20454;-93
2023/08/23 04:18:55;;;;;;;5.00;2.80;;;20.40;99.90;;;;;;5117955;28;20435;-93
2023/08/23 04:21:22;;;;;;;4.17;2.93;;;20.40;99.90;;;;;;5121668;27;20446;-93
2023/08/23 04:23:49;;;;;;;2.80;2.60;;;20.40;99.90;;;;;;5122676;27;20446;-93
2023/08/23 04:26:15;;;;;;;3.70;2.93;;;20.40;99.90;;;;;;5121660;27;20466;-93
2023/08/23 04:28:42;;;;;;;3.10;2.73;;;20.40;99.90;;;;;;5121397;27;20990;-93
2023/08/23 04:31:09;;;;;;;3.67;3.20;;;20.40;99.90;;;;;;5121691;27;20445;-93
2023/08/23 04:33:37;;;;;;;4.87;3.47;;;20.40;99.90;;;;;;5121757;27;20442;-93
2023/08/23 04:36:04;;;;;;;4.00;2.67;;;20.40;99.90;;;;;;5121658;27;20494;-93
2023/08/23 04:38:31;;;;;;;3.53;3.23;;;20.40;99.90;;;;;;5121677;27;20434;-93
2023/08/23 04:41:02;;;;;;;3.63;3.33;;;20.40;99.90;;;;;;5122148;27;20442;-93
2023/08/23 04:43:29;;;;;;;4.20;2.90;;;20.40;99.90;;;;;;5121704;27;20446;-93
2023/08/23 04:45:56;;;;;;;4.17;3.37;;;20.50;99.90;;;;;;5121921;27;20462;-93
2023/08/23 04:48:24;;;;;;;3.83;2.90;;;20.50;99.90;;;;;;5121563;27;20477;-93
2023/08/23 04:50:53;;;;;;;6.00;2.60;;;20.50;99.90;;;;;;5121407;27;20935;-93
2023/08/23 04:53:20;;;;;;;3.83;3.23;;;20.40;99.90;;;;;;5122220;27;21006;-93
2023/08/23 04:55:48;;;;;;;7.33;3.80;;;20.50;99.90;;;;;;5121168;27;20977;-93
2023/08/23 04:58:15;;;;;;;4.13;3.17;;;20.50;99.90;;;;;;5121622;27;20441;-93
2023/08/23 05:00:42;;;;;;;3.23;2.87;;;20.60;99.90;;;;;;5121461;27;20927;-93
2023/08/23 05:03:08;;;;;;;3.97;3.27;;;20.50;99.90;;;;;;5121056;27;20854;-93
2023/08/23 05:05:35;;;;;;;3.40;3.10;;;20.50;99.90;;;;;;5121367;27;20473;-93
2023/08/23 05:08:04;;;;;;;3.37;3.10;;;20.60;99.90;;;;;;5120995;27;20990;-93
2023/08/23 05:10:30;;;;;;;4.00;3.00;;;20.60;99.90;;;;;;5121124;27;20443;-93
2023/08/23 05:12:58;;;;;;;6.90;3.57;;;20.60;99.90;;;;;;5121193;27;20442;-93
2023/08/23 05:15:25;;;;;;;4.70;3.47;;;20.60;99.90;;;;;;5121588;27;20489;-93
2023/08/23 05:17:52;;;;;;;3.40;3.07;;;20.60;99.90;;;;;;5121105;27;20934;-93
2023/08/23 05:20:19;;;;;;;9.33;4.30;;;20.60;99.90;;;;;;5121278;27;20495;-93
2023/08/23 05:22:45;;;;;;;7.60;2.83;;;20.70;99.90;;;;;;5122410;27;20453;-93
2023/08/23 05:25:14;;;;;;;6.33;3.33;;;20.70;99.90;;;;;;5121359;27;20454;-93
2023/08/23 05:27:41;;;;;;;3.87;3.47;;;20.70;99.90;;;;;;5120816;27;20481;-93
2023/08/23 05:30:09;;;;;;;10.77;3.00;;;20.70;99.90;;;;;;5119211;27;20443;-93
2023/08/23 05:32:35;;;;;;;4.97;3.43;;;20.80;99.90;;;;;;5118577;28;20445;-93
2023/08/23 05:35:03;;;;;;;3.43;3.20;;;20.90;99.90;;;;;;5118582;28;20462;-93
2023/08/23 05:37:29;;;;;;;3.00;2.80;;;20.80;99.90;;;;;;5124585;28;20426;-90
2023/08/23 05:39:56;;;;;;;4.80;3.10;;;20.90;99.90;;;;;;5119825;28;20449;-93
2023/08/23 05:42:24;;;;;;;3.57;3.27;;;20.90;99.90;;;;;;5117749;28;20449;-94
2023/08/23 05:44:51;;;;;;;3.37;3.13;;;21.00;99.90;;;;;;5117449;27;20471;-93
2023/08/23 05:47:18;;;;;;;3.97;3.20;;;21.30;99.90;;;;;;5117728;28;20446;-93
2023/08/23 05:49:45;;;;;;;4.90;2.93;;;21.10;99.90;;;;;;5121030;28;20445;-92
2023/08/23 05:52:11;;;;;;;3.23;3.00;;;21.10;99.90;;;;;;5117536;28;20442;-92
2023/08/23 05:54:38;;;;;;;4.20;3.70;;;21.20;99.90;;;;;;5116266;28;20461;-82
2023/08/23 05:57:05;;;;;;;6.00;3.90;;;21.30;99.90;;;;;;5116212;28;20442;-82
2023/08/23 05:59:34;;;;;;;3.80;3.10;;;21.30;99.90;;;;;;5116178;28;20438;-82
2023/08/23 06:02:00;;;;;;;4.00;2.73;;;21.40;99.90;;;;;;5115848;28;21010;-82
2023/08/23 06:04:28;;;;;;;3.77;3.47;;;21.50;99.90;;;;;;5116057;28;20482;-82
2023/08/23 06:06:55;;;;;;;3.47;3.17;;;21.60;99.90;;;;;;5116046;28;20439;-82
2023/08/23 06:09:22;;;;;;;5.13;3.50;;;21.70;99.90;;;;;;5116168;28;20477;-82
2023/08/23 06:11:48;;;;;;;4.80;4.33;;;21.80;99.90;;;;;;5116004;28;20443;-82
2023/08/23 06:14:20;;;;;;;4.63;3.93;;;21.90;99.90;;;;;;5116065;28;20446;-82
2023/08/23 06:16:48;;;;;;;4.77;3.70;;;22.00;99.90;;;;;;5115595;28;20438;-82
2023/08/23 06:19:15;;;;;;;3.23;2.93;;;22.10;99.90;;;;;;5115868;27;20463;-82
2023/08/23 06:21:42;;;;;;;3.50;3.20;;;22.20;99.90;;;;;;5115444;27;20445;-82
2023/08/23 06:24:09;;;;;;;4.53;3.30;;;22.30;99.90;;;;;;5115752;28;20442;-82
2023/08/23 06:26:36;;;;;;;3.63;3.33;;;22.40;99.90;;;;;;5115545;28;20469;-82
2023/08/23 06:29:03;;;;;;;4.13;3.70;;;22.60;99.90;;;;;;5115279;28;20223;-81
2023/08/23 06:31:30;;;;;;;4.03;3.03;;;22.50;99.90;;;;;;5115553;28;20488;-82
2023/08/23 06:33:58;;;;;;;3.40;3.17;;;22.50;99.90;;;;;;5115624;28;20423;-82
2023/08/23 06:36:25;;;;;;;3.97;3.20;;;22.60;99.90;;;;;;5115274;28;20993;-82
2023/08/23 06:38:53;;;;;;;3.00;2.80;;;22.70;99.90;;;;;;5115160;28;20927;-82
2023/08/23 06:41:19;;;;;;;3.00;2.80;;;22.70;99.90;;;;;;5115299;28;20274;-82
2023/08/23 06:43:48;;;;;;;4.00;3.60;;;22.90;99.90;;;;;;5115628;28;20439;-82
2023/08/23 06:46:15;;;;;;;6.47;3.47;;;22.90;99.90;;;;;;5115300;28;20565;-82
2023/08/23 06:48:42;;;;;;;3.23;2.77;;;23.00;99.90;;;;;;5114874;28;20481;-82
2023/08/23 06:51:10;;;;;;;6.20;3.57;;;23.20;99.90;;;;;;5115225;28;20228;-82
2023/08/23 06:53:37;;;;;;;3.63;3.33;;;23.30;99.90;;;;;;5115185;28;20204;-82
2023/08/23 06:56:07;;;;;;;3.70;3.40;;;23.30;99.90;;;;;;5115011;28;20231;-82
2023/08/23 06:58:34;;;;;;;5.30;3.63;;;23.40;99.90;;;;;;5115018;28;20192;-82
2023/08/23 07:01:01;;;;;;;3.47;3.28;;;23.50;99.90;;;;;;5114993;28;20212;-82
2023/08/23 07:03:28;;;;;;;2.87;2.50;;;23.60;99.90;;;;;;5114777;28;20224;-82
2023/08/23 07:05:55;;;;;;;5.05;3.60;;;23.60;99.90;;;;;;5114797;28;20228;-83
2023/08/23 07:08:23;;;;;;;4.22;3.28;;;23.60;99.90;;;;;;5114803;28;20590;-82
2023/08/23 07:10:50;;;;;;;5.07;3.78;;;23.70;99.90;;;;;;5114827;28;20200;-82
2023/08/23 07:13:16;;;;;;;4.03;2.90;;;23.80;99.90;;;;;;5114786;28;20208;-82
2023/08/23 07:15:43;;;;;;;4.25;3.40;;;23.90;99.90;;;;;;5114570;28;20225;-82
2023/08/23 07:18:10;;;;;;;3.05;2.80;;;24.00;99.90;;;;;;5114684;28;20199;-82
2023/08/23 07:20:37;;;;;;;3.97;3.63;;;24.20;99.90;;;;;;5114596;28;20228;-82
2023/08/23 07:23:04;;;;;;;3.15;2.90;;;24.40;99.90;;;;;;5114604;28;20196;-82
2023/08/23 07:25:32;;;;;;;5.43;3.22;;;24.50;99.90;;;;;;5114527;28;20220;-82
2023/08/23 07:27:59;;;;;;;4.10;2.90;;;24.70;99.90;;;;;;5114661;28;20221;-82
2023/08/23 07:30:26;;;;;;;3.90;3.58;;;24.80;99.90;;;;;;5114408;28;20564;-82
2023/08/23 07:32:52;;;;;;;4.90;3.70;;;24.80;99.90;;;;;;5114350;28;20215;-82
2023/08/23 07:35:19;;;;;;;6.30;3.15;;;24.80;99.90;;;;;;5113930;28;20713;-82
2023/08/23 07:37:46;;;;;;;4.15;3.53;;;24.90;99.90;;;;;;5113969;28;20681;-82
2023/08/23 07:40:13;;;;;;;3.90;3.30;;;24.90;99.90;;;;;;5114230;28;20200;-82
2023/08/23 07:42:41;;;;;;;3.35;2.83;;;24.90;99.90;;;;;;5114519;28;20223;-94
2023/08/23 07:45:09;;;;;;;4.35;3.58;;;25.00;99.90;;;;;;5115338;28;20721;-93
2023/08/23 07:47:36;;;;;;;6.70;3.15;;;25.10;99.90;;;;;;5115460;28;20207;-92
2023/08/23 07:50:03;;;;;;;3.22;2.97;;;25.20;99.90;;;;;;5115305;28;20235;-92
2023/08/23 07:52:30;;;;;;;3.30;3.10;;;25.40;99.90;;;;;;5114639;28;20208;-81
2023/08/23 07:54:57;;;;;;;7.38;3.38;;;25.60;99.90;;;;;;5113492;28;20232;-81
2023/08/23 07:57:24;;;;;;;5.13;2.50;;;25.70;99.90;;;;;;5114010;28;20200;-81
2023/08/23 07:59:55;;;;;;;3.08;2.60;;;25.80;99.90;;;;;;5114013;28;20197;-81
2023/08/23 08:02:21;;;;;;;3.03;2.83;;;25.90;99.90;;;;;;5113972;28;20613;-80
2023/08/23 08:04:48;;;;;;;7.32;3.17;;;25.90;99.90;;;;;;5113436;28;20233;-80
2023/08/23 08:07:15;;;;;;;3.53;3.22;;;26.00;99.90;;;;;;5113956;28;20551;-80
2023/08/23 08:09:41;;;;;;;4.20;2.95;;;26.10;99.90;;;;;;5113760;28;20228;-80
2023/08/23 08:12:08;;;;;;;6.82;3.08;;;26.10;99.90;;;;;;5113520;28;20200;-80
2023/08/23 08:14:35;;;;;;;3.00;2.70;;;26.10;99.90;;;;;;5113447;28;20580;-80
2023/08/23 08:17:03;;;;;;;4.45;3.35;;;26.00;99.90;;;;;;5113827;28;20204;-80
2023/08/23 08:19:30;;;;;;;3.80;3.33;;;26.00;99.90;;;;;;5113751;28;20199;-80
2023/08/23 08:21:56;;;;;;;3.38;2.80;;;26.10;99.90;;;;;;5113769;28;20549;-80
2023/08/23 08:24:23;;;;;;;3.25;2.95;;;26.30;99.90;;;;;;5113695;28;20199;-80
2023/08/23 08:26:50;;;;;;;5.85;3.28;;;26.30;99.90;;;;;;5113863;28;20204;-80
2023/08/23 08:29:17;;;;;;;4.43;3.50;;;26.30;99.90;;;;;;5113544;28;20209;-80
2023/08/23 08:31:43;;;;;;;4.57;4.10;;;26.30;99.90;;;;;;5111945;28;20695;-80
2023/08/23 08:34:11;;;;;;;4.10;3.80;;;26.50;99.90;;;;;;5113648;28;20197;-80
2023/08/23 08:36:40;;;;;;;3.90;3.47;;;26.50;99.90;;;;;;5113482;28;20574;-80
2023/08/23 08:39:07;;;;;;;4.00;3.15;;;26.40;99.90;;;;;;5113250;28;20576;-80
2023/08/23 08:41:33;;;;;;;6.03;5.00;;;26.40;99.90;;;;;;5113621;28;20189;-80
2023/08/23 08:44:02;;;;;;;4.93;4.28;;;26.30;99.90;;;;;;5113544;28;20211;-80
2023/08/23 08:46:29;;;;;;;4.35;3.63;;;26.50;99.90;;;;;;5113705;28;20217;-80
2023/08/23 08:48:56;;;;;;;6.75;4.55;;;26.50;99.90;;;;;;5113673;28;20560;-82
2023/08/23 08:51:25;;;;;;;4.97;3.45;;;26.70;99.90;;;;;;5113423;28;20291;-82
2023/08/23 08:53:52;;;;;;;4.43;3.17;;;26.80;99.90;;;;;;5113470;28;20201;-82
2023/08/23 08:56:20;;;;;;;5.50;4.22;;;27.10;99.90;;;;;;5113945;28;20270;-81
2023/08/23 08:58:47;;;;;;;4.63;4.25;;;27.50;99.90;;;;;;5113695;28;20193;-82
2023/08/23 09:01:15;;;;;;;5.80;4.22;;;27.80;99.90;;;;;;5113390;28;20204;-82
2023/08/23 09:03:42;;;;;;;4.45;2.65;;;27.90;99.90;;;;;;5113250;28;20228;-82
2023/08/23 09:06:10;;;;;;;4.82;4.10;;;27.90;99.90;;;;;;5115001;28;20220;-82
2023/08/23 09:08:38;;;;;;;6.30;4.97;;;27.90;99.90;;;;;;5117134;28;20586;-82
2023/08/23 09:11:05;;;;;;;4.65;3.08;;;27.80;99.90;;;;;;5117051;28;20205;-82
2023/08/23 09:13:31;;;;;;;5.65;5.13;;;27.80;99.90;;;;;;5116820;28;20571;-82
2023/08/23 09:15:59;;;;;;;4.75;3.33;;;27.90;99.90;;;;;;5116974;28;20220;-82
2023/08/23 09:18:26;;;;;;;10.48;7.13;;;28.00;99.90;;;;;;5117037;28;20254;-82
2023/08/23 09:20:53;;;;;;;4.65;4.20;;;28.00;99.90;;;;;;5116649;28;20277;-82
2023/08/23 09:23:20;;;;;;;7.53;6.82;;;28.00;99.90;;;;;;5116914;28;20197;-82
2023/08/23 09:25:48;;;;;;;6.88;6.03;;;27.90;99.90;;;;;;5116827;28;20225;-82
2023/08/23 09:28:16;;;;;;;9.18;8.32;;;27.90;99.90;;;;;;5116765;28;20201;-82
2023/08/23 09:30:47;;;;;;;8.25;7.28;;;27.80;99.90;;;;;;5116444;28;20688;-82
2023/08/23 09:33:14;;;;;;;7.57;6.97;;;27.90;99.90;;;;;;5117049;28;20193;-82
2023/08/23 09:35:48;;;;;;;10.57;9.52;;;27.90;99.90;;;;;;5116284;28;20236;-82
2023/08/23 09:38:19;;;;;;;8.88;7.43;;;27.90;99.90;;;;;;5116717;28;20238;-82
2023/08/23 09:40:46;;;;;;;11.13;10.10;;;27.90;99.90;;;;;;5116319;28;20641;-82
2023/08/23 09:43:16;;;;;;;8.35;6.97;;;27.80;99.90;;;;;;5116591;28;20212;-82
2023/08/23 09:45:43;;;;;;;7.50;5.53;;;27.70;99.90;;;;;;5116472;28;20228;-82
2023/08/23 09:48:11;;;;;;;11.50;10.50;;;27.50;99.90;;;;;;5116148;28;20570;-82
2023/08/23 09:50:38;;;;;;;7.07;5.35;;;27.50;99.90;;;;;;5116021;28;20213;-82
2023/08/23 09:53:06;;;;;;;12.65;11.60;;;27.50;99.90;;;;;;5116401;28;20578;-82
2023/08/23 09:55:34;;;;;;;7.85;6.30;;;27.50;99.90;;;;;;5116271;28;20216;-80
2023/08/23 09:58:01;;;;;;;6.60;5.05;;;27.60;99.90;;;;;;5116249;28;20201;-82
2023/08/23 10:00:30;;;;;;;8.73;7.93;;;27.70;99.90;;;;;;5115930;28;20549;-82
2023/08/23 10:02:57;;;;;;;8.80;8.02;;;27.80;99.90;;;;;;5116089;28;20233;-82
2023/08/23 10:05:26;;;;;;;7.57;7.05;;;27.90;99.90;;;;;;5116059;28;20332;-82
2023/08/23 10:07:54;;;;;;;7.22;6.15;;;28.10;99.90;;;;;;5116090;28;20201;-82
2023/08/23 10:10:20;;;;;;;7.35;6.70;;;28.40;99.90;;;;;;5115969;28;20221;-82
2023/08/23 10:12:50;;;;;;;9.15;8.27;;;28.40;99.90;;;;;;5115965;28;20201;-81
2023/08/23 10:15:22;;;;;;;10.57;9.70;;;28.60;99.90;;;;;;5115819;28;20224;-81
2023/08/23 10:17:50;;;;;;;10.27;9.30;;;28.60;99.90;;;;;;5115115;28;20197;-81
2023/08/23 10:20:17;;;;;;;12.20;11.05;;;28.70;99.90;;;;;;5116589;28;20203;-81
2023/08/23 10:22:45;;;;;;;7.82;7.28;;;28.70;99.90;;;;;;5115806;28;20207;-82
2023/08/23 10:25:16;;;;;;;7.88;6.38;;;28.80;99.90;;;;;;5115689;28;20220;-81
2023/08/23 10:27:45;;;;;;;8.85;8.00;;;28.90;99.90;;;;;;5115742;27;20250;-82
2023/08/23 10:30:16;;;;;;;19.73;18.27;;;28.90;99.90;;;;;;5115867;28;20227;-83
2023/08/23 10:32:45;;;;;;;9.32;8.48;;;28.80;99.90;;;;;;5115660;28;20188;-81
2023/08/23 10:35:23;;;;;;;11.80;11.00;;;28.90;99.90;;;;;;5115475;28;20217;-81
2023/08/23 10:37:49;;;;;;;8.15;7.43;;;29.10;99.90;;;;;;5115507;28;20185;-81
2023/08/23 10:40:19;;;;;;;9.98;8.95;;;29.10;99.90;;;;;;5115497;28;20183;-81
2023/08/23 10:42:46;;;;;;;9.68;8.90;;;29.30;99.90;;;;;;5115443;27;20205;-81
2023/08/23 10:45:16;;;;;;;9.88;9.07;;;29.40;99.90;;;;;;5115218;28;20218;-81
2023/08/23 10:47:43;;;;;;;9.23;8.40;;;29.50;99.90;;;;;;5115287;28;20258;-81
2023/08/23 10:50:11;;;;;;;8.82;8.18;;;29.70;99.90;;;;;;5115171;28;20263;-81
2023/08/23 10:52:39;;;;;;;8.45;7.30;;;29.90;99.90;;;;;;5115173;28;20206;-82
2023/08/23 10:55:06;;;;;;;11.15;10.10;;;30.20;99.90;;;;;;5115128;28;20251;-81
2023/08/23 10:57:33;;;;;;;10.13;9.15;;;30.40;99.90;;;;;;5115078;27;20282;-82
2023/08/23 11:00:00;;;;;;;10.75;9.63;;;30.50;99.90;;;;;;5114749;28;20569;-82
2023/08/23 11:02:27;;;;;;;12.98;11.88;;;30.80;99.90;;;;;;5114856;28;20206;-81
2023/08/23 11:04:53;;;;;;;18.40;17.08;;;31.00;99.90;;;;;;5114876;28;20221;-81
2023/08/23 11:07:25;;;;;;;27.88;26.20;;;31.30;99.90;;;;;;5114572;28;20697;-81
2023/08/23 11:09:54;;;;;;;38.45;36.20;;;31.50;99.90;;;;;;5115430;28;20558;-91
2023/08/23 11:12:23;;;;;;;38.38;36.03;;;31.30;99.90;;;;;;5115981;28;20250;-90
2023/08/23 11:14:49;;;;;;;22.20;20.73;;;31.10;99.90;;;;;;5116099;28;20663;-93
2023/08/23 11:17:17;;;;;;;22.45;21.02;;;30.80;99.90;;;;;;5115821;28;20208;-90
2023/08/23 11:19:44;;;;;;;35.22;33.33;;;30.70;99.90;;;;;;5115538;28;20296;-91
2023/08/23 11:22:10;;;;;;;21.50;19.83;;;30.50;99.90;;;;;;5123439;28;20207;-91
2023/08/23 11:24:38;;;;;;;25.33;23.77;;;30.40;99.90;;;;;;5115388;28;20728;-92
2023/08/23 11:27:13;;;;;;;27.38;25.55;;;30.20;99.90;;;;;;5115742;28;20213;-91
2023/08/23 11:29:41;;;;;;;26.15;24.30;;;30.20;99.90;;;;;;5114839;28;20204;-91
2023/08/23 11:32:08;;;;;;;20.70;19.27;;;30.10;99.90;;;;;;5115658;28;20291;-91
2023/08/23 11:34:34;;;;;;;39.63;37.15;;;30.10;99.90;;;;;;5115350;28;20224;-91
2023/08/23 11:37:07;;;;;;;28.65;26.70;;;30.20;99.90;;;;;;5115261;28;20220;-90
2023/08/23 11:39:34;;;;;;;28.33;26.65;;;30.20;99.90;;;;;;5115112;28;20227;-91
2023/08/23 11:42:01;;;;;;;20.20;18.83;;;30.00;99.90;;;;;;5115083;28;20210;-90
2023/08/23 11:44:29;;;;;;;18.33;17.02;;;30.10;99.90;;;;;;5115360;28;20213;-91
2023/08/23 11:46:57;;;;;;;35.97;33.67;;;30.10;99.90;;;;;;5115314;28;20206;-90
2023/08/23 11:49:25;;;;;;;22.42;20.88;;;30.20;99.90;;;;;;5115168;28;20338;-91
2023/08/23 11:51:53;;;;;;;20.48;19.05;;;30.20;99.90;;;;;;5115277;28;20209;-91
2023/08/23 11:54:22;;;;;;;22.23;20.73;;;30.10;99.90;;;;;;5115220;28;20297;-90
2023/08/23 11:56:48;;;;;;;25.50;23.67;;;30.10;99.90;;;;;;5115464;28;20291;-90
2023/08/23 11:59:15;;;;;;;15.13;13.70;;;30.10;99.90;;;;;;5115123;28;20578;-91
2023/08/23 12:01:44;;;;;;;16.60;15.30;;;30.00;99.90;;;;;;5115000;28;20233;-91
2023/08/23 12:04:11;;;;;;;20.42;18.98;;;30.00;99.90;;;;;;5114435;28;20732;-91
2023/08/23 12:06:38;;;;;;;17.63;16.30;;;29.90;99.90;;;;;;5114875;28;20224;-91
2023/08/23 12:09:05;;;;;;;22.35;20.67;;;29.80;99.90;;;;;;5114477;28;20205;-82
2023/08/23 12:11:33;;;;;;;16.23;14.73;;;29.70;99.90;;;;;;5113891;28;20215;-82
2023/08/23 12:14:00;;;;;;;15.30;14.10;;;29.70;99.90;;;;;;5113845;28;20634;-82
2023/08/23 12:16:27;;;;;;;19.48;18.08;;;29.80;99.90;;;;;;5113725;28;20270;-81
2023/08/23 12:18:55;;;;;;;21.67;20.05;;;29.90;99.90;;;;;;5113466;28;20204;-82
2023/08/23 12:21:22;;;;;;;14.80;13.70;;;29.80;99.90;;;;;;5113747;28;20210;-82
2023/08/23 12:23:49;;;;;;;17.48;16.23;;;29.70;99.90;;;;;;5113757;28;20199;-77
2023/08/23 12:26:18;;;;;;;17.92;16.58;;;29.40;99.90;;;;;;5113400;28;20603;-76
2023/08/23 12:28:45;;;;;;;14.98;13.77;;;29.30;99.90;;;;;;5113635;28;20200;-76
2023/08/23 12:31:13;;;;;;;11.20;10.20;;;29.40;99.90;;;;;;5113253;28;20231;-77
2023/08/23 12:33:40;;;;;;;10.73;9.85;;;29.50;99.90;;;;;;5113643;28;20599;-80
2023/08/23 12:36:08;;;;;;;8.45;7.63;;;29.50;99.90;;;;;;5113529;28;20224;-80
2023/08/23 12:38:35;;;;;;;11.57;10.55;;;29.40;99.90;;;;;;5113556;28;20218;-80
2023/08/23 12:41:02;;;;;;;12.88;11.35;;;29.40;99.90;;;;;;5116949;28;20195;-80
2023/08/23 12:43:32;;;;;;;14.13;13.05;;;29.40;99.90;;;;;;5117698;27;20251;-80